Time;durP1;ratioP1;P1;durP2;ratioP2;P2;SDS_P1;SDS_P2;PMS_P1;PMS_P2;Temp;Humidity;BMP_temperature;BMP_pressure;BME280_temperature;BME280_humidity;BME280_pressure;Samples;Min_cycle;Max_cycle;Signal;HPM_P1;HPM_P2
2023/04/12 00:01:23;;;;;;;16.10;10.50;;;;;;;7.76;97.04;98464.31;108017;1306;22498;-41
2023/04/12 00:03:50;;;;;;;17.60;11.20;;;;;;;7.70;96.85;98460.81;108031;1306;23229;-39
2023/04/12 00:06:16;;;;;;;17.80;10.60;;;;;;;7.68;97.29;98453.82;108052;1306;22234;-42
2023/04/12 00:08:45;;;;;;;16.10;11.70;;;;;;;7.62;97.13;98454.29;108044;1306;22391;-39
2023/04/12 00:11:11;;;;;;;16.00;11.40;;;;;;;7.58;97.40;98448.25;108024;1306;22233;-40
2023/04/12 00:13:36;;;;;;;18.40;11.10;;;;;;;7.59;97.81;98450.27;108048;1306;23012;-40
2023/04/12 00:16:02;;;;;;;13.30;10.10;;;;;;;7.63;96.94;98452.84;108028;1306;22398;-40
2023/04/12 00:18:27;;;;;;;18.30;10.90;;;;;;;7.61;96.50;98458.52;108035;1306;22993;-40
2023/04/12 00:20:54;;;;;;;12.90;10.20;;;;;;;7.55;96.86;98460.77;108057;1306;22227;-40
2023/04/12 00:23:20;;;;;;;15.90;10.90;;;;;;;7.46;98.44;98460.75;108047;1306;22237;-41
2023/04/12 00:25:45;;;;;;;19.20;11.60;;;;;;;7.48;98.00;98461.19;108043;1306;22301;-40
2023/04/12 00:28:10;;;;;;;17.40;11.00;;;;;;;7.51;97.09;98454.40;108018;1306;22844;-42
2023/04/12 00:30:35;;;;;;;14.80;11.60;;;;;;;7.52;98.29;98456.09;108018;1306;22399;-39
2023/04/12 00:33:01;;;;;;;15.00;10.50;;;;;;;7.54;98.17;98450.56;108033;1306;22238;-40
2023/04/12 00:35:26;;;;;;;16.80;11.30;;;;;;;7.58;97.30;98454.55;108020;1302;22419;-41
2023/04/12 00:37:52;;;;;;;19.10;11.90;;;;;;;7.56;97.41;98456.73;108013;1307;22363;-40
2023/04/12 00:40:17;;;;;;;18.00;12.10;;;;;;;7.55;96.83;98463.21;107992;1307;22695;-41
2023/04/12 00:42:43;;;;;;;18.30;11.40;;;;;;;7.51;97.48;98462.10;107709;1307;22240;-41
2023/04/12 00:45:08;;;;;;;15.90;11.30;;;;;;;7.47;98.33;98463.66;107995;1307;23230;-40
2023/04/12 00:47:35;;;;;;;17.60;11.30;;;;;;;7.48;97.26;98464.52;107542;1307;23180;-40
2023/04/12 00:50:02;;;;;;;20.30;11.50;;;;;;;7.44;97.73;98461.08;107988;1307;22271;-41
2023/04/12 00:52:32;;;;;;;14.70;10.40;;;;;;;7.40;99.04;98466.69;107989;1307;23284;-40
2023/04/12 00:54:59;;;;;;;19.30;11.40;;;;;;;7.43;98.54;98467.55;107722;1307;22204;-39
2023/04/12 00:57:26;;;;;;;14.10;11.30;;;;;;;7.48;98.47;98466.94;108003;1307;22208;-40
2023/04/12 00:59:52;;;;;;;14.20;11.20;;;;;;;7.44;98.86;98470.65;108016;1307;22351;-40
2023/04/12 01:02:18;;;;;;;15.30;11.10;;;;;;;7.44;99.24;98468.91;108015;1307;22466;-40
2023/04/12 01:04:44;;;;;;;16.80;11.20;;;;;;;7.48;98.02;98467.80;107998;1307;23090;-40
2023/04/12 01:07:24;;;;;;;17.20;11.60;;;;;;;7.51;97.71;98466.95;108004;1307;22242;-39
2023/04/12 01:10:08;;;;;;;17.90;11.40;;;;;;;7.53;98.74;98464.42;107998;1307;22456;-41
2023/04/12 01:13:02;;;;;;;16.40;12.10;;;;;;;7.55;99.11;98458.20;108002;1307;22376;-40
2023/04/12 01:15:31;;;;;;;16.00;10.70;;;;;;;7.55;98.72;98461.34;107989;1307;22273;-40
2023/04/12 01:18:04;;;;;;;17.80;10.90;;;;;;;7.56;97.81;98459.70;107999;1307;22236;-41
2023/04/12 01:20:38;;;;;;;13.80;10.00;;;;;;;7.56;97.31;98458.28;108008;1307;22298;-40
2023/04/12 01:23:33;;;;;;;16.80;10.30;;;;;;;7.52;97.38;98460.11;108014;1307;22325;-41
2023/04/12 01:26:20;;;;;;;12.90;10.60;;;;;;;7.52;97.71;98460.77;108000;1307;22420;-38
2023/04/12 01:28:50;;;;;;;14.00;9.50;;;;;;;7.54;97.81;98458.40;107722;1307;22312;-39
2023/04/12 01:31:18;;;;;;;11.50;9.30;;;;;;;7.52;97.28;98457.82;108011;1307;22530;-40
2023/04/12 01:33:45;;;;;;;11.80;9.70;;;;;;;7.40;97.52;98453.07;107493;1307;22278;-40
2023/04/12 01:36:19;;;;;;;13.70;9.40;;;;;;;7.30;97.78;98451.37;107700;1307;22212;-40
2023/04/12 01:38:45;;;;;;;16.00;10.10;;;;;;;7.18;97.90;98453.76;108014;1307;22234;-41
2023/04/12 01:41:11;;;;;;;19.40;11.30;;;;;;;7.12;97.86;98449.08;107998;1307;22946;-39
2023/04/12 01:43:43;;;;;;;16.80;11.70;;;;;;;7.13;98.67;98442.92;108019;1307;22714;-39
2023/04/12 01:46:10;;;;;;;20.50;13.10;;;;;;;7.09;99.75;98438.07;108013;1307;22390;-41
2023/04/12 01:48:38;;;;;;;23.10;12.90;;;;;;;7.15;99.17;98433.00;108019;1307;22245;-40
2023/04/12 01:51:31;;;;;;;18.60;12.30;;;;;;;7.17;98.98;98434.98;108025;1307;22210;-42
2023/04/12 01:54:01;;;;;;;13.90;10.40;;;;;;;7.16;99.54;98437.49;108016;1307;22253;-39
2023/04/12 01:56:33;;;;;;;15.50;10.00;;;;;;;7.15;99.89;98434.42;107993;1307;22245;-40
2023/04/12 01:59:01;;;;;;;12.70;10.90;;;;;;;7.15;99.94;98431.47;107499;1307;22452;-41
2023/04/12 02:01:28;;;;;;;17.40;11.40;;;;;;;7.14;99.92;98428.40;108019;1307;22236;-40
2023/04/12 02:03:55;;;;;;;18.00;11.70;;;;;;;7.18;100.00;98427.27;108006;1307;22296;-42
2023/04/12 02:06:22;;;;;;;17.40;11.40;;;;;;;7.22;100.00;98428.61;108019;1307;22508;-40
2023/04/12 02:08:47;;;;;;;13.00;10.90;;;;;;;7.26;99.92;98429.99;108015;1307;23778;-39
2023/04/12 02:11:16;;;;;;;14.60;10.40;;;;;;;7.32;99.43;98429.64;108000;1307;22451;-40
2023/04/12 02:13:41;;;;;;;15.40;10.30;;;;;;;7.34;99.13;98428.34;108010;1307;22188;-40
2023/04/12 02:16:09;;;;;;;16.00;11.20;;;;;;;7.34;98.69;98431.80;107978;1307;22226;-39
2023/04/12 02:18:35;;;;;;;14.10;11.00;;;;;;;7.36;98.65;98432.41;108025;1307;22504;-40
2023/04/12 02:21:00;;;;;;;16.40;10.80;;;;;;;7.38;97.93;98427.57;108029;1307;22383;-39
2023/04/12 02:23:25;;;;;;;14.80;11.20;;;;;;;7.32;98.27;98427.94;108007;1307;22409;-40
2023/04/12 02:25:51;;;;;;;13.80;10.60;;;;;;;7.31;98.12;98428.48;108020;1307;22704;-40
2023/04/12 02:28:16;;;;;;;15.00;9.80;;;;;;;7.25;98.23;98425.51;108012;1307;22216;-40
2023/04/12 02:30:41;;;;;;;14.30;11.80;;;;;;;7.20;99.10;98423.16;107995;1307;23670;-39
2023/04/12 02:33:08;;;;;;;12.90;10.90;;;;;;;7.23;98.85;98424.21;107989;1307;22220;-42
2023/04/12 02:35:35;;;;;;;14.30;10.50;;;;;;;7.24;99.19;98428.32;108021;1307;22935;-40
2023/04/12 02:38:02;;;;;;;15.90;10.90;;;;;;;7.25;99.15;98430.91;107987;1307;22314;-39
2023/04/12 02:43:46;;;;;;;13.60;10.00;;;;;;;7.32;98.58;98430.52;107131;1302;545059;-38
2023/04/12 02:46:25;;;;;;;15.90;10.70;;;;;;;7.26;99.34;98432.08;107397;1312;22224;-39
2023/04/12 02:48:51;;;;;;;12.00;10.10;;;;;;;7.24;99.18;98431.48;107409;1312;22245;-39
2023/04/12 02:51:16;;;;;;;14.20;10.20;;;;;;;7.17;99.38;98432.20;107408;1312;22579;-40
2023/04/12 02:53:42;;;;;;;17.10;9.90;;;;;;;7.21;99.13;98437.58;107658;1310;22236;-40
2023/04/12 02:56:08;;;;;;;12.20;10.30;;;;;;;7.21;98.99;98434.59;107656;1310;23040;-39
2023/04/12 02:58:35;;;;;;;12.90;10.00;;;;;;;7.22;99.37;98432.79;107758;1308;162846;-38
2023/04/12 03:01:00;;;;;;;13.60;10.40;;;;;;;7.27;99.01;98433.77;107883;1308;22871;-38
2023/04/12 03:03:30;;;;;;;12.90;9.60;;;;;;;7.19;98.76;98429.65;107865;1308;22431;-40
2023/04/12 03:05:57;;;;;;;12.80;10.60;;;;;;;7.14;99.15;98428.53;107852;1308;22893;-40
2023/04/12 03:08:22;;;;;;;10.80;9.60;;;;;;;7.17;98.88;98428.93;107878;1308;22244;-41
2023/04/12 03:10:47;;;;;;;10.90;9.60;;;;;;;7.20;98.79;98428.21;107842;1308;22486;-40
2023/04/12 03:13:12;;;;;;;12.90;10.60;;;;;;;7.22;98.85;98430.38;107847;1308;22971;-39
2023/04/12 03:15:38;;;;;;;11.80;10.50;;;;;;;7.13;99.54;98427.23;107878;1308;25160;-40
2023/04/12 03:18:03;;;;;;;22.30;10.70;;;;;;;7.15;99.55;98425.55;107858;1308;22193;-40
2023/04/12 03:20:29;;;;;;;13.60;9.90;;;;;;;7.16;98.99;98427.56;107856;1308;22808;-39
2023/04/12 03:22:54;;;;;;;15.40;11.20;;;;;;;7.16;99.25;98428.60;107854;1308;23080;-39
2023/04/12 03:25:19;;;;;;;12.90;11.40;;;;;;;7.10;99.62;98429.63;107870;1308;22243;-38
2023/04/12 03:27:45;;;;;;;15.30;11.40;;;;;;;7.11;99.88;98428.88;107867;1308;23292;-40
2023/04/12 03:30:11;;;;;;;16.10;10.80;;;;;;;7.14;100.00;98426.45;107826;1308;22474;-39
2023/04/12 03:32:38;;;;;;;13.10;11.00;;;;;;;7.18;99.91;98421.20;107859;1308;22407;-39
2023/04/12 03:35:03;;;;;;;12.50;9.80;;;;;;;7.21;98.91;98422.77;107848;1308;22434;-37
2023/04/12 03:37:29;;;;;;;16.30;11.30;;;;;;;7.21;99.33;98421.52;107853;1308;22870;-39
2023/04/12 03:39:54;;;;;;;15.10;11.40;;;;;;;7.20;99.61;98422.63;107843;1308;23008;-38
2023/04/12 03:42:20;;;;;;;15.90;11.50;;;;;;;7.24;99.04;98420.98;107829;1308;22514;-39
2023/04/12 03:44:45;;;;;;;13.30;10.60;;;;;;;7.25;98.83;98421.85;107829;1308;22439;-39
2023/04/12 03:47:11;;;;;;;15.50;11.20;;;;;;;7.21;98.99;98420.16;107818;1308;22250;-39
2023/04/12 03:49:37;;;;;;;15.80;11.20;;;;;;;7.16;98.91;98421.13;107871;1308;22237;-39
2023/04/12 03:52:04;;;;;;;16.60;12.20;;;;;;;7.14;99.64;98424.00;107862;1308;23213;-39
2023/04/12 03:54:29;;;;;;;16.40;12.80;;;;;;;7.23;98.90;98426.11;108022;1307;22470;-39
2023/04/12 03:56:55;;;;;;;16.60;12.30;;;;;;;7.24;98.95;98426.96;108010;1306;22411;-40
2023/04/12 03:59:21;;;;;;;20.40;14.30;;;;;;;7.21;98.84;98428.66;107991;1306;22510;-41
2023/04/12 04:01:46;;;;;;;19.20;13.40;;;;;;;7.23;99.54;98427.53;107830;1307;22259;-40
2023/04/12 04:04:12;;;;;;;17.60;13.30;;;;;;;7.24;100.00;98427.45;108019;1307;22234;-39
2023/04/12 04:06:37;;;;;;;21.00;14.10;;;;;;;7.20;100.00;98423.51;107998;1306;22432;-40
2023/04/12 04:09:02;;;;;;;17.40;13.00;;;;;;;7.20;100.00;98422.08;108006;1307;22230;-39
2023/04/12 04:11:28;;;;;;;19.70;12.90;;;;;;;7.27;100.00;98421.20;108032;1307;23020;-41
2023/04/12 04:13:53;;;;;;;16.50;13.00;;;;;;;7.33;100.00;98418.10;108025;1307;22468;-40
2023/04/12 04:16:19;;;;;;;16.20;12.10;;;;;;;7.37;100.00;98420.33;108026;1307;22471;-39
2023/04/12 04:18:44;;;;;;;17.60;13.10;;;;;;;7.33;100.00;98422.11;108011;1306;22243;-40
2023/04/12 04:21:09;;;;;;;17.40;12.90;;;;;;;7.29;99.88;98419.71;108019;1306;22239;-40
2023/04/12 04:23:37;;;;;;;17.60;12.20;;;;;;;7.26;99.97;98420.19;108025;1307;22334;-40
2023/04/12 04:26:09;;;;;;;15.70;11.60;;;;;;;7.28;99.61;98424.98;108026;1307;22958;-42
2023/04/12 04:28:44;;;;;;;17.70;12.90;;;;;;;7.33;99.61;98431.35;108019;1307;22481;-41
2023/04/12 04:31:16;;;;;;;14.50;12.10;;;;;;;7.33;99.75;98432.40;108020;1307;22220;-41
2023/04/12 04:33:41;;;;;;;18.40;11.90;;;;;;;7.28;99.85;98434.21;107559;1306;22261;-41
2023/04/12 04:36:08;;;;;;;15.90;12.10;;;;;;;7.30;99.82;98435.48;108037;1307;22413;-40
2023/04/12 04:38:33;;;;;;;15.70;11.40;;;;;;;7.35;99.10;98437.52;108042;1306;22226;-40
2023/04/12 04:41:02;;;;;;;14.90;11.40;;;;;;;7.33;99.38;98437.99;108021;1306;22413;-41
2023/04/12 04:43:32;;;;;;;18.10;12.50;;;;;;;7.36;99.17;98438.16;107796;1307;22444;-40
2023/04/12 04:45:58;;;;;;;19.50;13.00;;;;;;;7.37;99.80;98442.45;108041;1306;22410;-40
2023/04/12 04:48:23;;;;;;;15.60;11.70;;;;;;;7.41;99.08;98445.16;108015;1306;22393;-40
2023/04/12 04:50:52;;;;;;;19.30;12.30;;;;;;;7.42;98.46;98448.63;108021;1307;22244;-40
2023/04/12 04:53:18;;;;;;;20.20;12.80;;;;;;;7.43;99.01;98449.80;108026;1307;22239;-40
2023/04/12 04:55:44;;;;;;;15.50;12.70;;;;;;;7.45;98.45;98451.60;107798;1307;22470;-41
2023/04/12 04:58:10;;;;;;;19.90;12.50;;;;;;;7.42;99.14;98452.11;108018;1307;22253;-39
2023/04/12 05:00:37;;;;;;;18.20;11.90;;;;;;;7.46;99.67;98445.44;108018;1307;22252;-41
2023/04/12 05:03:03;;;;;;;15.50;12.10;;;;;;;7.47;98.68;98442.73;108026;1307;22223;-41
2023/04/12 05:05:29;;;;;;;16.30;12.70;;;;;;;7.45;98.49;98444.08;108016;1307;22262;-40
2023/04/12 05:07:55;;;;;;;17.00;12.90;;;;;;;7.43;98.84;98445.42;108036;1307;22257;-41
2023/04/12 05:10:21;;;;;;;15.30;11.70;;;;;;;7.45;99.22;98450.38;108031;1307;22230;-41
2023/04/12 05:12:46;;;;;;;13.60;11.40;;;;;;;7.45;99.26;98455.76;108037;1307;22425;-40
2023/04/12 05:15:11;;;;;;;17.60;12.70;;;;;;;7.47;98.75;98452.85;108021;1307;23095;-40
2023/04/12 05:17:37;;;;;;;16.90;11.80;;;;;;;7.44;99.33;98457.40;108028;1307;22320;-43
2023/04/12 05:20:06;;;;;;;13.90;11.80;;;;;;;7.45;99.04;98456.30;108016;1306;22479;-44
2023/04/12 05:22:31;;;;;;;15.70;11.70;;;;;;;7.43;98.74;98458.34;108034;1307;22238;-39
2023/04/12 05:24:57;;;;;;;16.20;12.20;;;;;;;7.40;98.68;98457.11;107992;1307;23008;-41
2023/04/12 05:27:23;;;;;;;16.70;12.30;;;;;;;7.34;98.63;98456.58;108010;1307;22260;-41
2023/04/12 05:29:48;;;;;;;25.30;18.00;;;;;;;7.26;99.21;98457.85;108004;1307;22291;-40
2023/04/12 05:32:13;;;;;;;18.00;15.20;;;;;;;7.29;98.72;98459.76;108028;1307;22234;-41
2023/04/12 05:34:39;;;;;;;22.80;17.00;;;;;;;7.29;98.65;98455.44;108024;1307;22459;-41
2023/04/12 05:37:04;;;;;;;20.60;14.80;;;;;;;7.31;98.86;98454.27;108040;1307;22486;-41
2023/04/12 05:39:30;;;;;;;15.70;11.40;;;;;;;7.36;98.62;98459.41;108017;1307;22320;-40
2023/04/12 05:41:55;;;;;;;19.10;12.90;;;;;;;7.32;98.41;98457.17;108023;1307;22255;-40
2023/04/12 05:44:21;;;;;;;43.50;28.00;;;;;;;7.29;98.64;98457.35;107810;1306;22965;-41
2023/04/12 05:46:46;;;;;;;64.90;36.10;;;;;;;7.33;98.92;98457.48;108012;1306;22956;-39
2023/04/12 05:49:12;;;;;;;38.50;22.80;;;;;;;7.35;99.30;98457.05;108035;1306;23060;-40
2023/04/12 05:51:37;;;;;;;39.60;26.10;;;;;;;7.32;98.99;98458.61;108010;1306;22632;-40
2023/04/12 05:54:05;;;;;;;28.20;18.60;;;;;;;7.31;98.75;98460.38;108015;1306;22646;-40
2023/04/12 05:56:31;;;;;;;25.50;18.70;;;;;;;7.33;99.60;98463.61;108033;1307;22191;-40
2023/04/12 05:58:57;;;;;;;18.20;14.50;;;;;;;7.38;99.13;98461.39;108020;1306;22292;-41
2023/04/12 06:01:30;;;;;;;19.40;14.30;;;;;;;7.39;98.88;98461.87;108047;1306;22210;-40
2023/04/12 06:04:01;;;;;;;20.70;15.60;;;;;;;7.39;99.08;98464.81;108025;1306;22896;-39
2023/04/12 06:06:28;;;;;;;15.10;12.10;;;;;;;7.41;99.53;98464.88;108052;1307;22549;-40
2023/04/12 06:08:54;;;;;;;19.80;12.40;;;;;;;7.45;99.37;98462.95;108022;1307;23073;-41
2023/04/12 06:11:20;;;;;;;19.30;14.70;;;;;;;7.46;98.93;98461.30;108042;1306;22256;-40
2023/04/12 06:13:46;;;;;;;25.10;17.80;;;;;;;7.46;98.54;98462.19;108021;1307;22419;-40
2023/04/12 06:16:12;;;;;;;17.90;13.50;;;;;;;7.51;98.49;98457.53;108026;1307;22461;-41
2023/04/12 06:18:37;;;;;;;18.80;15.00;;;;;;;7.58;97.82;98458.04;107999;1307;22445;-40
2023/04/12 06:21:03;;;;;;;19.50;13.90;;;;;;;7.57;98.30;98461.92;108034;1307;22431;-40
2023/04/12 06:23:28;;;;;;;20.20;13.30;;;;;;;7.62;98.20;98462.85;108024;1307;22252;-40
2023/04/12 06:25:54;;;;;;;16.70;12.10;;;;;;;7.67;98.01;98467.42;108026;1307;22251;-40
2023/04/12 06:28:19;;;;;;;19.10;14.10;;;;;;;7.71;97.46;98470.02;108013;1307;23050;-40
2023/04/12 06:30:44;;;;;;;51.60;31.70;;;;;;;7.76;97.12;98465.38;107997;1306;22627;-41
2023/04/12 06:33:10;;;;;;;59.60;36.10;;;;;;;7.74;96.76;98463.38;108032;1307;22215;-40
2023/04/12 06:35:36;;;;;;;25.00;18.00;;;;;;;7.69;97.05;98465.58;108032;1307;22452;-39
2023/04/12 06:38:01;;;;;;;25.00;18.10;;;;;;;7.67;96.81;98464.83;108019;1307;23537;-40
2023/04/12 06:40:26;;;;;;;18.80;14.90;;;;;;;7.71;96.65;98458.69;108027;1307;22222;-40
2023/04/12 06:42:52;;;;;;;19.10;14.00;;;;;;;7.77;96.42;98458.55;108010;1307;22316;-40
2023/04/12 06:45:17;;;;;;;20.30;13.90;;;;;;;7.76;97.03;98458.39;107982;1307;22355;-39
2023/04/12 06:47:43;;;;;;;18.70;14.50;;;;;;;7.79;96.68;98458.77;108034;1306;22578;-39
2023/04/12 06:50:12;;;;;;;22.30;14.80;;;;;;;7.82;96.31;98459.61;107998;1306;22407;-40
2023/04/12 06:52:38;;;;;;;19.50;14.80;;;;;;;7.83;96.84;98461.50;107627;1307;22880;-40
2023/04/12 06:55:04;;;;;;;15.90;13.50;;;;;;;7.86;97.22;98464.46;108005;1307;22228;-41
2023/04/12 06:57:29;;;;;;;18.10;13.10;;;;;;;7.89;97.05;98465.48;108025;1306;22207;-40
2023/04/12 06:59:55;;;;;;;21.60;13.30;;;;;;;7.94;96.24;98459.98;107999;1306;22234;-39
2023/04/12 07:02:20;;;;;;;17.20;14.00;;;;;;;7.99;95.94;98462.30;108014;1307;23031;-40
2023/04/12 07:04:46;;;;;;;18.80;14.10;;;;;;;8.01;96.18;98466.05;108002;1306;23147;-40
2023/04/12 07:07:12;;;;;;;25.00;14.90;;;;;;;8.02;96.03;98463.17;108033;1306;22228;-39
2023/04/12 07:09:37;;;;;;;24.80;15.40;;;;;;;8.07;96.88;98465.69;107997;1306;22391;-41
2023/04/12 07:12:02;;;;;;;19.30;13.70;;;;;;;8.12;96.96;98464.36;107985;1306;23019;-40
2023/04/12 07:14:28;;;;;;;19.50;14.70;;;;;;;8.12;95.79;98462.79;108016;1306;22277;-38
2023/04/12 07:16:53;;;;;;;20.10;13.40;;;;;;;8.12;95.56;98462.98;108017;1307;22290;-41
2023/04/12 07:19:18;;;;;;;20.10;13.00;;;;;;;8.12;95.59;98459.33;107819;1307;22398;-40
2023/04/12 07:21:44;;;;;;;19.60;14.00;;;;;;;8.07;95.59;98460.27;108033;1306;22238;-41
2023/04/12 07:24:09;;;;;;;22.50;14.80;;;;;;;8.06;95.62;98459.77;108033;1306;22247;-41
2023/04/12 07:26:35;;;;;;;23.10;15.50;;;;;;;8.11;96.08;98467.89;108029;1306;22232;-40
2023/04/12 07:29:00;;;;;;;23.00;14.90;;;;;;;8.20;95.90;98459.52;108023;1306;22280;-38
2023/04/12 07:31:29;;;;;;;22.20;12.50;;;;;;;8.17;95.51;98459.16;108001;1306;22249;-38
2023/04/12 07:33:54;;;;;;;20.50;12.90;;;;;;;8.22;94.54;98452.42;108021;1306;23545;-39
2023/04/12 07:36:20;;;;;;;19.30;12.80;;;;;;;8.25;94.22;98453.45;108013;1306;22459;-39
2023/04/12 07:38:46;;;;;;;17.20;12.30;;;;;;;8.35;93.99;98451.98;108041;1306;22219;-39
2023/04/12 07:41:11;;;;;;;17.00;12.60;;;;;;;8.46;93.60;98452.42;108020;1306;22392;-39
2023/04/12 07:43:36;;;;;;;15.40;11.20;;;;;;;8.51;93.27;98450.59;108011;1306;22403;-40
2023/04/12 07:46:06;;;;;;;16.40;11.50;;;;;;;8.39;92.36;98446.38;108020;1307;22229;-40
2023/04/12 07:48:32;;;;;;;16.00;11.80;;;;;;;8.46;92.73;98446.31;108028;1307;23098;-39
2023/04/12 07:50:57;;;;;;;19.00;12.30;;;;;;;8.55;92.96;98450.68;108022;1307;22872;-40
2023/04/12 07:53:25;;;;;;;20.50;12.90;;;;;;;8.65;92.67;98457.21;107999;1307;22254;-39
2023/04/12 07:55:51;;;;;;;20.30;12.20;;;;;;;8.65;91.95;98454.95;108023;1307;22222;-40
2023/04/12 07:58:17;;;;;;;23.20;12.90;;;;;;;8.67;91.73;98458.83;108014;1307;22274;-40
2023/04/12 08:00:43;;;;;;;18.30;12.40;;;;;;;8.67;91.68;98458.50;108028;1307;22414;-39
2023/04/12 08:03:11;;;;;;;19.70;12.20;;;;;;;8.69;91.88;98460.86;108045;1306;23514;-39
2023/04/12 08:05:36;;;;;;;17.20;11.60;;;;;;;8.74;91.97;98457.02;108027;1306;22249;-39
2023/04/12 08:08:02;;;;;;;18.00;12.00;;;;;;;8.84;91.19;98455.36;108000;1306;22225;-40
2023/04/12 08:10:28;;;;;;;17.20;12.20;;;;;;;8.84;90.73;98457.28;108015;1307;22316;-40
2023/04/12 08:12:53;;;;;;;17.30;11.60;;;;;;;8.94;90.88;98453.73;108018;1306;23059;-40
2023/04/12 08:15:18;;;;;;;19.50;11.40;;;;;;;8.99;90.04;98451.83;108022;1306;22415;-38
2023/04/12 08:17:45;;;;;;;17.00;10.80;;;;;;;9.00;89.72;98456.67;108012;1307;23213;-41
2023/04/12 08:20:11;;;;;;;16.40;10.30;;;;;;;8.99;89.86;98462.14;108037;1306;22225;-41
2023/04/12 08:22:36;;;;;;;14.70;10.00;;;;;;;8.98;89.43;98465.00;107999;1306;22948;-39
2023/04/12 08:25:01;;;;;;;14.40;9.60;;;;;;;8.92;88.78;98458.92;108004;1307;22331;-40
2023/04/12 08:27:28;;;;;;;14.50;9.60;;;;;;;8.90;88.25;98459.56;107999;1306;22404;-39
2023/04/12 08:29:53;;;;;;;14.10;9.70;;;;;;;8.92;87.90;98458.89;108019;1307;22274;-40
2023/04/12 08:32:19;;;;;;;12.70;10.10;;;;;;;8.98;87.80;98460.65;108008;1306;23141;-39
2023/04/12 08:34:44;;;;;;;15.00;9.20;;;;;;;9.01;88.31;98456.79;108010;1306;22234;-40
2023/04/12 08:37:09;;;;;;;16.30;8.90;;;;;;;9.02;87.17;98452.53;108026;1306;22930;-41
2023/04/12 08:39:36;;;;;;;13.40;9.80;;;;;;;9.07;87.40;98453.43;108029;1307;22823;-41
2023/04/12 08:42:03;;;;;;;13.30;10.20;;;;;;;9.10;87.70;98455.36;108045;1306;22349;-40
2023/04/12 08:44:38;;;;;;;16.40;10.70;;;;;;;9.09;87.19;98455.39;108019;1306;22214;-42
2023/04/12 08:47:06;;;;;;;14.70;10.60;;;;;;;9.08;87.93;98454.61;108007;1306;22379;-41
2023/04/12 08:49:32;;;;;;;;;;;;;;;9.08;88.67;98458.12;108001;1302;22461;-41
2023/04/12 08:52:04;;;;;;;15.40;9.40;;;;;;;9.00;87.69;98465.02;108006;1306;22238;-40
2023/04/12 08:54:30;;;;;;;14.40;9.60;;;;;;;8.83;87.68;98465.70;107958;1307;22254;-41
2023/04/12 08:56:59;;;;;;;14.10;8.90;;;;;;;8.70;87.89;98467.95;107969;1306;22252;-41
2023/04/12 08:59:27;;;;;;;14.80;9.60;;;;;;;8.63;87.84;98467.47;107968;1307;22255;-41
2023/04/12 09:01:54;;;;;;;15.00;9.10;;;;;;;8.63;88.31;98465.76;107903;1302;22264;-42
2023/04/12 09:04:19;;;;;;;18.10;9.10;;;;;;;8.65;88.69;98464.73;107628;1307;22439;-41
2023/04/12 09:06:45;;;;;;;11.40;8.70;;;;;;;8.69;87.90;98465.17;107922;1307;22376;-40
2023/04/12 09:09:10;;;;;;;11.40;9.40;;;;;;;8.76;87.70;98460.95;107918;1308;23170;-42
2023/04/12 09:11:36;;;;;;;16.70;8.80;;;;;;;8.76;86.98;98457.44;107925;1305;22222;-41
2023/04/12 09:14:01;;;;;;;12.30;8.80;;;;;;;8.77;86.93;98450.90;107994;1307;23304;-39
2023/04/12 09:16:34;;;;;;;16.90;8.40;;;;;;;8.82;86.84;98453.36;108014;1305;22411;-41
2023/04/12 09:19:02;;;;;;;17.00;9.00;;;;;;;8.82;86.65;98451.11;107620;1307;23028;-41
2023/04/12 09:21:27;;;;;;;11.50;8.10;;;;;;;8.85;85.79;98453.55;107954;1307;22215;-40
2023/04/12 09:24:10;;;;;;;11.00;8.20;;;;;;;8.90;85.64;98449.63;107878;1307;22298;-40
2023/04/12 09:26:36;;;;;;;10.60;7.50;;;;;;;9.02;86.09;98446.41;107882;1307;22468;-41
2023/04/12 09:29:02;;;;;;;8.20;7.10;;;;;;;9.11;85.51;98446.53;107904;1307;22404;-39
2023/04/12 09:31:27;;;;;;;9.60;7.00;;;;;;;9.23;84.50;98446.13;107895;1302;22367;-40
2023/04/12 09:34:05;;;;;;;10.30;6.10;;;;;;;9.25;83.63;98446.52;107876;1293;22212;-40
2023/04/12 09:36:37;;;;;;;9.70;7.20;;;;;;;9.35;82.63;98441.70;107927;1307;22420;-40
2023/04/12 09:39:04;;;;;;;12.70;6.90;;;;;;;9.45;81.53;98435.83;107987;1306;22437;-39
2023/04/12 09:41:30;;;;;;;9.40;6.60;;;;;;;9.58;80.91;98436.22;108000;1306;23108;-41
2023/04/12 09:43:57;;;;;;;11.80;6.30;;;;;;;9.63;80.35;98436.39;107969;1306;23051;-40
2023/04/12 09:46:22;;;;;;;11.20;6.40;;;;;;;9.66;79.49;98437.79;107867;1302;22482;-42
2023/04/12 09:48:57;;;;;;;7.20;6.10;;;;;;;9.70;78.94;98436.84;107880;1292;22247;-45
2023/04/12 09:51:33;;;;;;;9.90;6.00;;;;;;;9.78;79.61;98432.81;107896;1304;22224;-41
2023/04/12 09:54:04;;;;;;;8.00;5.80;;;;;;;9.86;78.88;98431.92;107883;1307;22477;-41
2023/04/12 09:56:32;;;;;;;7.10;6.10;;;;;;;9.91;77.75;98431.39;107933;1299;22430;-39
2023/04/12 09:59:05;;;;;;;7.40;6.00;;;;;;;9.99;78.00;98434.05;107912;1306;23021;-41
2023/04/12 10:01:41;;;;;;;6.70;5.80;;;;;;;9.97;76.85;98434.84;107926;1307;22227;-40
2023/04/12 10:04:06;;;;;;;8.60;6.40;;;;;;;9.97;76.30;98431.89;107952;1307;22366;-41
2023/04/12 10:06:33;;;;;;;11.20;7.50;;;;;;;9.96;75.65;98432.86;107910;1302;22222;-40
2023/04/12 10:09:03;;;;;;;8.30;6.00;;;;;;;10.02;76.34;98434.73;107979;1307;22227;-41
2023/04/12 10:11:28;;;;;;;8.00;6.00;;;;;;;10.08;76.93;98434.85;107910;1305;22429;-39
2023/04/12 10:13:55;;;;;;;8.20;5.90;;;;;;;10.13;76.24;98433.08;107884;1307;22342;-39
2023/04/12 10:16:22;;;;;;;13.50;8.40;;;;;;;10.19;76.01;98434.99;107933;1306;22396;-40
2023/04/12 10:18:49;;;;;;;10.50;7.60;;;;;;;10.19;74.09;98431.84;107865;1307;22278;-39
2023/04/12 10:21:15;;;;;;;11.70;6.90;;;;;;;10.26;75.27;98432.05;107899;1307;22224;-41
2023/04/12 10:23:43;;;;;;;7.60;5.80;;;;;;;10.29;74.51;98431.84;107936;1302;22243;-41
2023/04/12 10:26:09;;;;;;;9.50;5.40;;;;;;;10.30;73.94;98433.58;107465;1307;22366;-41
2023/04/12 10:28:34;;;;;;;8.20;5.20;;;;;;;10.36;73.98;98430.67;108014;1306;22379;-41
2023/04/12 10:31:27;;;;;;;12.40;5.70;;;;;;;10.42;73.40;98428.20;107984;1301;22230;-41
2023/04/12 10:33:54;;;;;;;15.60;5.20;;;;;;;10.38;71.95;98423.02;107969;1307;22260;-41
2023/04/12 10:36:19;;;;;;;7.70;4.80;;;;;;;10.45;72.38;98421.52;107928;1306;22226;-43
2023/04/12 10:38:46;;;;;;;14.90;5.70;;;;;;;10.55;73.82;98421.69;107985;1307;22326;-40
2023/04/12 10:41:14;;;;;;;8.10;5.60;;;;;;;10.61;73.93;98423.07;107947;1305;22257;-42
2023/04/12 10:43:47;;;;;;;10.50;6.00;;;;;;;10.56;73.28;98420.40;107947;1306;22475;-41
2023/04/12 10:46:36;;;;;;;7.30;5.30;;;;;;;10.60;74.14;98423.66;107973;1307;22222;-41
2023/04/12 10:49:09;;;;;;;10.90;6.80;;;;;;;10.58;74.10;98420.45;107917;1307;23408;-40
2023/04/12 10:51:34;;;;;;;11.00;7.30;;;;;;;10.58;74.55;98421.33;107914;1307;22243;-40
2023/04/12 10:54:17;;;;;;;11.90;8.10;;;;;;;10.48;74.74;98414.11;107891;1307;22238;-41
2023/04/12 10:56:45;;;;;;;9.10;6.90;;;;;;;10.54;75.20;98413.73;107990;1306;22246;-41
2023/04/12 10:59:11;;;;;;;11.80;7.30;;;;;;;10.62;74.64;98415.45;107951;1307;23472;-39
2023/04/12 11:01:37;;;;;;;11.10;6.90;;;;;;;10.73;74.52;98413.80;107991;1307;22243;-40
2023/04/12 11:04:06;;;;;;;10.10;7.50;;;;;;;10.71;74.02;98416.02;107988;1298;22238;-40
2023/04/12 11:06:51;;;;;;;11.00;7.90;;;;;;;10.74;74.24;98416.02;107944;1307;22353;-43
2023/04/12 11:09:29;;;;;;;10.60;8.60;;;;;;;10.64;74.16;98413.03;108003;1307;22291;-39
2023/04/12 11:12:04;;;;;;;12.80;8.60;;;;;;;10.60;74.13;98410.68;108001;1298;22644;-40
2023/04/12 11:14:50;;;;;;;12.30;8.20;;;;;;;10.50;73.56;98410.51;107948;1299;22177;-40
2023/04/12 11:17:16;;;;;;;12.80;8.40;;;;;;;10.47;74.22;98409.85;107978;1307;22411;-40
2023/04/12 11:19:43;;;;;;;12.80;9.20;;;;;;;10.47;74.89;98405.98;107979;1307;22289;-39
2023/04/12 11:22:12;;;;;;;12.30;8.80;;;;;;;10.35;74.45;98405.56;107980;1307;22340;-40
2023/04/12 11:24:59;;;;;;;12.20;8.10;;;;;;;10.33;74.64;98400.79;108029;1307;22440;-41